Time;durP1;ratioP1;P1;durP2;ratioP2;P2;SDS_P1;SDS_P2;PMS_P1;PMS_P2;Temp;Humidity;BMP_temperature;BMP_pressure;BME280_temperature;BME280_humidity;BME280_pressure;Samples;Min_cycle;Max_cycle;Signal;HPM_P1;HPM_P2
2023/04/29 11:41:36;;;;;;;1.83;0.80;;;;;;;26.68;22.85;98872.16;4603444;31;20749;-89
2023/04/29 11:44:58;;;;;;;;;;;;;;;;;;;;;
2023/04/29 12:02:43;;;;;;;;;;;;;;;;;;;;;
2023/04/29 16:55:15;;;;;;;3.03;1.40;;;;;;;23.67;29.24;98677.50;4732246;30;20568;-91
2023/04/29 20:07:52;;;;;;;5.53;2.83;;;;;;;18.08;43.25;98780.78;4736361;30;20647;-88
2023/04/29 20:10:17;;;;;;;31.97;9.37;;;;;;;17.98;43.16;98773.78;4785078;29;20171;-90
2023/04/29 20:12:43;;;;;;;20.33;7.10;;;;;;;18.01;43.08;98774.34;4793828;29;20263;-89
2023/04/29 20:15:10;;;;;;;12.43;4.10;;;;;;;18.07;42.70;98784.41;4799986;29;20253;-90
2023/04/29 20:17:36;;;;;;;13.43;3.97;;;;;;;18.20;43.78;98787.66;4796388;29;20209;-90
2023/04/29 20:20:03;;;;;;;11.43;4.23;;;;;;;18.29;43.53;98783.34;4790740;29;20210;-90
2023/04/29 20:22:29;;;;;;;9.53;3.40;;;;;;;18.32;42.77;98785.72;4849148;29;20635;-90
2023/04/29 20:24:55;;;;;;;13.13;3.47;;;;;;;18.26;43.23;98787.09;4846865;29;20635;-91
2023/04/29 20:27:21;;;;;;;4.53;2.37;;;;;;;18.20;43.46;98785.00;4866379;29;20284;-90
2023/04/29 20:29:47;;;;;;;5.87;2.23;;;;;;;18.16;43.78;98778.28;4874914;29;20177;-91
2023/04/29 20:32:13;;;;;;;7.23;2.30;;;;;;;18.25;43.41;98774.81;4845918;29;20184;-89
2023/04/29 20:34:41;;;;;;;4.53;1.87;;;;;;;18.17;43.15;98781.78;4854691;29;20686;-90
2023/04/29 20:37:08;;;;;;;7.03;2.60;;;;;;;18.19;42.52;98779.81;4861631;29;20185;-90
2023/04/29 20:39:35;;;;;;;6.53;2.40;;;;;;;18.15;41.77;98781.09;4847345;29;20212;-90
2023/04/29 20:42:02;;;;;;;7.07;2.50;;;;;;;18.24;41.71;98780.25;4845749;29;20252;-90
2023/04/29 20:44:29;;;;;;;5.10;1.93;;;;;;;18.30;41.11;98777.06;4855720;29;20213;-89
2023/04/29 20:46:56;;;;;;;3.87;1.90;;;;;;;18.34;40.44;98781.13;4863078;29;20188;-90
2023/04/29 20:49:22;;;;;;;7.50;2.13;;;;;;;18.29;39.20;98783.34;4861823;29;20184;-89
2023/04/29 20:51:51;;;;;;;3.40;1.70;;;;;;;18.28;38.79;98771.06;4861425;29;20180;-89
2023/04/29 20:54:17;;;;;;;6.57;1.97;;;;;;;18.21;38.83;98780.56;4861776;29;20244;-89
2023/04/29 20:56:44;;;;;;;7.47;2.30;;;;;;;17.99;40.83;98778.97;4861455;29;20183;-89
2023/04/29 20:59:09;;;;;;;5.20;2.17;;;;;;;17.76;43.38;98773.03;4857923;29;20738;-88
2023/04/29 21:01:35;;;;;;;7.37;2.87;;;;;;;17.88;43.84;98778.22;4844988;29;20253;-88
2023/04/29 21:04:01;;;;;;;4.93;2.17;;;;;;;18.00;43.56;98771.84;4845644;29;20209;-88
2023/04/29 21:06:28;;;;;;;6.07;2.40;;;;;;;18.17;43.23;98779.13;4863959;29;20192;-88
2023/04/29 21:08:55;;;;;;;5.87;2.73;;;;;;;18.29;43.10;98775.41;4875114;29;20188;-88
2023/04/29 21:11:22;;;;;;;5.10;2.53;;;;;;;18.28;42.83;98776.34;4868386;29;20256;-88
2023/04/29 21:13:50;;;;;;;3.73;2.00;;;;;;;18.26;41.37;98771.16;4845122;29;20588;-89
2023/04/29 21:16:18;;;;;;;4.50;1.80;;;;;;;18.31;39.48;98773.44;4861096;29;20560;-89
2023/04/29 21:18:44;;;;;;;4.63;1.70;;;;;;;18.38;38.50;98763.94;4861984;29;20180;-90
2023/04/29 21:21:11;;;;;;;6.47;2.53;;;;;;;18.38;37.76;98767.44;4859979;29;20208;-89
2023/04/29 21:23:38;;;;;;;4.33;1.87;;;;;;;18.39;37.57;98758.47;4879124;29;20650;-89
2023/04/29 21:26:04;;;;;;;3.17;1.60;;;;;;;18.35;37.61;98761.56;4879930;29;20203;-89
2023/04/29 21:28:31;;;;;;;4.30;1.70;;;;;;;18.37;38.11;98759.59;4879013;29;20634;-89
2023/04/29 21:30:57;;;;;;;6.53;1.83;;;;;;;18.39;38.25;98757.66;4879576;29;20190;-89
2023/04/29 21:33:23;;;;;;;6.10;2.00;;;;;;;18.35;38.38;98766.88;4862635;29;20275;-88
2023/04/29 21:35:50;;;;;;;3.80;1.63;;;;;;;18.38;38.45;98758.63;4862334;29;20330;-89
2023/04/29 21:38:17;;;;;;;2.50;1.67;;;;;;;18.39;38.35;98768.28;4878216;29;20629;-88
2023/04/29 21:40:46;;;;;;;4.23;1.70;;;;;;;18.36;37.69;98757.94;4849272;29;20222;-88
2023/04/29 21:43:15;;;;;;;6.10;2.00;;;;;;;18.34;37.70;98762.56;4859401;29;20196;-88
2023/04/29 21:45:43;;;;;;;4.13;1.80;;;;;;;18.36;37.97;98760.59;4870426;29;20187;-88
2023/04/29 21:48:18;;;;;;;4.90;2.00;;;;;;;18.33;38.04;98767.00;4877959;29;20235;-89
2023/04/29 21:50:45;;;;;;;4.40;1.90;;;;;;;18.25;38.53;98773.97;4877020;29;20175;-89
2023/04/29 21:53:13;;;;;;;5.30;2.83;;;;;;;18.28;38.65;98779.00;4862567;29;20252;-88
2023/04/29 21:55:39;;;;;;;3.87;1.83;;;;;;;18.23;38.71;98778.59;4849472;29;20200;-88
2023/04/29 21:58:05;;;;;;;5.70;2.30;;;;;;;18.12;39.72;98778.69;4845227;29;20619;-88
2023/04/29 22:00:35;;;;;;;3.63;2.03;;;;;;;18.00;40.85;98777.16;4860503;29;20212;-88
2023/04/29 22:03:10;;;;;;;4.13;2.43;;;;;;;17.94;41.33;98773.22;4860605;29;20180;-88
2023/04/29 22:05:37;;;;;;;4.53;2.33;;;;;;;17.86;41.60;98770.41;4860882;29;20176;-88
2023/04/29 22:08:06;;;;;;;9.77;2.37;;;;;;;17.89;41.56;98769.28;4844606;29;20184;-88
2023/04/29 22:10:32;;;;;;;5.87;2.33;;;;;;;17.88;41.55;98765.78;4860578;29;20214;-89
2023/04/29 22:12:59;;;;;;;3.83;2.40;;;;;;;17.95;41.28;98755.50;4860597;29;20276;-91
2023/04/29 22:15:26;;;;;;;5.33;2.23;;;;;;;17.96;41.24;98759.81;4844403;29;20180;-90
2023/04/29 22:17:53;;;;;;;6.83;2.37;;;;;;;17.94;41.50;98756.47;4860827;29;20177;-91
2023/04/29 22:20:20;;;;;;;5.73;2.40;;;;;;;17.91;41.13;98759.38;4860957;29;20201;-89
2023/04/29 22:22:46;;;;;;;7.73;2.20;;;;;;;17.84;41.17;98755.59;4860564;29;20191;-91
2023/04/29 22:25:13;;;;;;;5.50;2.47;;;;;;;17.84;41.07;98750.31;4860510;29;20212;-91
2023/04/29 22:27:40;;;;;;;4.67;2.40;;;;;;;17.87;40.61;98750.88;4860475;29;20546;-91
2023/04/29 22:30:07;;;;;;;6.03;2.77;;;;;;;17.76;40.53;98741.22;4860505;29;20176;-91
2023/04/29 22:32:34;;;;;;;3.60;1.97;;;;;;;17.74;40.33;98740.50;4860677;29;20189;-90
2023/04/29 22:34:59;;;;;;;4.17;2.43;;;;;;;17.82;40.36;98733.69;4844026;29;20247;-91
2023/04/29 22:37:26;;;;;;;6.20;2.20;;;;;;;17.91;40.21;98733.72;4850675;29;20195;-91
2023/04/29 22:39:53;;;;;;;4.87;2.10;;;;;;;17.87;39.73;98726.19;4880369;29;20282;-91
2023/04/29 22:42:18;;;;;;;6.03;2.97;;;;;;;17.83;39.86;98717.66;4882614;29;20176;-91
2023/04/29 22:44:45;;;;;;;4.40;2.13;;;;;;;17.83;40.23;98715.00;4882305;29;20176;-91
2023/04/29 22:47:12;;;;;;;4.10;2.13;;;;;;;17.86;39.65;98716.53;4860842;29;20295;-90
2023/04/29 22:49:39;;;;;;;3.67;2.43;;;;;;;17.88;40.18;98719.88;4859472;29;20179;-91
2023/04/29 22:52:06;;;;;;;6.97;2.77;;;;;;;17.90;40.14;98724.06;4882439;29;20640;-91
2023/04/29 22:54:32;;;;;;;4.17;2.20;;;;;;;17.89;40.78;98721.56;4882296;29;20648;-91
2023/04/29 22:56:59;;;;;;;6.97;2.53;;;;;;;17.80;40.35;98723.22;4865615;29;20233;-92
2023/04/29 22:59:25;;;;;;;5.10;2.27;;;;;;;17.75;40.62;98725.44;4865847;29;20211;-91
2023/04/29 23:01:50;;;;;;;3.77;2.10;;;;;;;17.69;42.11;98726.81;4882360;29;20183;-92
2023/04/29 23:04:18;;;;;;;4.03;2.40;;;;;;;17.76;42.72;98733.28;4882131;29;20199;-91
2023/04/29 23:06:44;;;;;;;5.03;2.43;;;;;;;17.67;44.23;98722.63;4882425;29;20184;-91
2023/04/29 23:09:10;;;;;;;12.20;3.00;;;;;;;17.56;44.38;98718.25;4881840;29;20236;-91
2023/04/29 23:11:35;;;;;;;6.77;2.90;;;;;;;17.57;44.84;98727.91;4881715;29;20188;-91
2023/04/29 23:14:02;;;;;;;6.77;2.50;;;;;;;17.11;45.66;98722.22;4847029;29;20179;-91
2023/04/29 23:16:28;;;;;;;5.70;2.77;;;;;;;17.36;44.89;98721.78;4863220;29;20212;-91
2023/04/29 23:18:53;;;;;;;5.57;2.50;;;;;;;17.42;43.55;98717.75;4863109;29;20192;-91
2023/04/29 23:21:20;;;;;;;4.33;2.17;;;;;;;17.44;43.06;98718.47;4863006;29;20696;-91
2023/04/29 23:23:46;;;;;;;7.00;2.37;;;;;;;17.44;43.19;98727.25;4863590;29;20184;-92
2023/04/29 23:26:11;;;;;;;5.10;2.33;;;;;;;17.30;43.35;98732.06;4863194;29;20188;-90
2023/04/29 23:28:38;;;;;;;6.20;2.93;;;;;;;17.25;43.82;98737.75;4863071;29;20181;-91
2023/04/29 23:31:04;;;;;;;6.70;2.67;;;;;;;17.30;43.67;98718.81;4863143;29;20173;-91
2023/04/29 23:33:29;;;;;;;10.37;3.10;;;;;;;17.27;44.18;98716.47;4862917;29;20199;-91
2023/04/29 23:35:55;;;;;;;7.10;2.40;;;;;;;17.15;44.66;98719.19;4863468;29;20781;-92
2023/04/29 23:38:22;;;;;;;7.37;2.87;;;;;;;16.86;44.93;98717.34;4863167;29;20177;-91
2023/04/29 23:40:48;;;;;;;4.90;2.57;;;;;;;16.85;45.77;98715.66;4863055;29;20243;-91
2023/04/29 23:43:15;;;;;;;5.40;2.77;;;;;;;16.92;45.71;98711.53;4862676;29;20169;-91
2023/04/29 23:45:45;;;;;;;5.17;2.33;;;;;;;16.87;45.42;98713.72;4862481;29;20188;-90
2023/04/29 23:48:11;;;;;;;5.40;2.57;;;;;;;17.01;45.21;98710.72;4863180;29;20244;-91
2023/04/29 23:50:36;;;;;;;6.07;2.63;;;;;;;17.08;45.49;98714.53;4862818;29;20176;-91
2023/04/29 23:53:03;;;;;;;16.20;3.47;;;;;;;17.04;45.39;98716.59;4862471;29;20702;-91
2023/04/29 23:55:30;;;;;;;7.30;3.10;;;;;;;17.14;45.12;98700.75;4862627;29;20235;-91
2023/04/29 23:57:55;;;;;;;5.10;2.57;;;;;;;17.28;44.86;98705.72;4846280;29;20263;-91
